createdAt,value
2019-06-08T00:02:30.807Z,20.29
2019-06-08T00:07:35.058Z,20.25
2019-06-08T00:12:39.358Z,20.39
2019-06-08T00:17:43.615Z,20.47
2019-06-08T00:22:47.879Z,20.49
2019-06-08T00:27:52.136Z,20.63
2019-06-08T00:32:56.488Z,20.74
2019-06-08T00:38:00.768Z,20.68
2019-06-08T00:43:05.060Z,20.16
2019-06-08T00:48:09.492Z,19.83
2019-06-08T00:53:13.802Z,19.83
2019-06-08T00:58:18.142Z,19.46
2019-06-08T01:09:20.317Z,19.39
2019-06-08T01:14:24.919Z,19.47
2019-06-08T01:19:29.657Z,19.11
2019-06-08T01:24:34.071Z,18.94
2019-06-08T01:29:38.397Z,19.20
2019-06-08T01:34:42.710Z,19.12
2019-06-08T01:39:46.997Z,19.05
2019-06-08T01:44:51.272Z,19.07
2019-06-08T01:49:55.553Z,18.72
2019-06-08T01:54:59.819Z,18.47
2019-06-08T02:00:29.327Z,18.85
2019-06-08T02:05:13.254Z,18.72
2019-06-08T02:10:19.096Z,18.27
2019-06-08T02:15:23.439Z,18.32
2019-06-08T02:20:28.723Z,18.51
2019-06-08T02:25:33.555Z,18.65
2019-06-08T02:30:39.718Z,18.52
2019-06-08T02:35:43.871Z,18.56
2019-06-08T02:40:48.137Z,18.24
2019-06-08T02:45:52.413Z,18.71
2019-06-08T02:50:57.295Z,18.55
2019-06-08T02:56:02.872Z,18.40
2019-06-08T03:01:07.362Z,17.82
2019-06-08T03:06:11.648Z,17.95
2019-06-08T03:11:16.278Z,17.97
2019-06-08T03:16:20.567Z,17.76
2019-06-08T03:21:24.844Z,17.57
2019-06-08T03:26:29.130Z,17.63
2019-06-08T03:31:36.133Z,17.47
2019-06-08T03:36:48.063Z,17.47
2019-06-08T03:41:45.407Z,17.32
2019-06-08T03:46:49.667Z,17.59
2019-06-08T03:51:53.954Z,17.36
2019-06-08T03:56:58.214Z,17.53
2019-06-08T04:02:02.487Z,17.59
2019-06-08T04:07:06.768Z,17.66
2019-06-08T04:12:11.042Z,17.88
2019-06-08T04:17:15.343Z,17.81
2019-06-08T04:22:19.641Z,17.83
2019-06-08T04:27:23.911Z,17.91
2019-06-08T04:32:28.169Z,17.75
2019-06-08T04:37:32.479Z,18.51
2019-06-08T04:42:39.281Z,18.36
2019-06-08T04:47:46.105Z,18.49
2019-06-08T04:52:50.091Z,18.35
2019-06-08T04:57:54.485Z,18.88
2019-06-08T05:02:58.784Z,19.00
2019-06-08T05:08:03.065Z,18.93
2019-06-08T05:13:07.334Z,18.73
2019-06-08T05:18:11.632Z,19.87
2019-06-08T05:23:15.937Z,19.78
2019-06-08T05:28:20.235Z,20.08
2019-06-08T05:33:24.515Z,19.54
2019-06-08T05:38:28.792Z,19.15
2019-06-08T05:43:33.106Z,19.77
2019-06-08T05:48:37.460Z,19.73
2019-06-08T05:53:41.741Z,19.48
2019-06-08T05:58:46.043Z,19.10
2019-06-08T06:03:51.762Z,18.95
2019-06-08T06:08:56.264Z,18.92
2019-06-08T06:14:00.552Z,18.97
2019-06-08T06:19:05.107Z,18.56
2019-06-08T06:24:09.368Z,19.03
2019-06-08T06:29:13.648Z,19.03
2019-06-08T06:34:17.953Z,19.09
2019-06-08T06:39:22.216Z,19.19
2019-06-08T06:44:26.567Z,18.97
2019-06-08T06:49:30.817Z,19.20
2019-06-08T06:54:35.104Z,19.43
2019-06-08T06:59:39.410Z,19.63
2019-06-08T07:04:43.771Z,19.59
2019-06-08T07:09:48.411Z,20.45
2019-06-08T07:14:53.268Z,19.87
2019-06-08T07:19:58.806Z,19.84
2019-06-08T07:25:03.436Z,19.66
2019-06-08T07:30:08.046Z,19.84
2019-06-08T07:35:12.484Z,19.79
2019-06-08T07:40:16.787Z,19.74
2019-06-08T07:45:21.111Z,19.98
2019-06-08T07:50:25.441Z,20.11
2019-06-08T07:55:29.722Z,19.99
2019-06-08T08:00:34.014Z,20.09
2019-06-08T08:05:38.320Z,20.41
2019-06-08T08:10:42.605Z,20.03
2019-06-08T08:15:46.989Z,20.23
2019-06-08T08:20:51.264Z,20.12
2019-06-08T08:26:00.313Z,20.54
2019-06-08T08:31:04.523Z,20.25
2019-06-08T08:36:08.828Z,20.22
2019-06-08T08:41:14.109Z,20.08
2019-06-08T08:46:18.412Z,20.28
2019-06-08T08:51:22.708Z,20.36
2019-06-08T08:56:33.102Z,19.71
2019-06-08T09:01:38.320Z,19.10
2019-06-08T09:06:43.790Z,19.35
2019-06-08T09:11:48.553Z,20.13
2019-06-08T09:16:53.724Z,19.91
2019-06-08T09:22:00.211Z,19.91
2019-06-08T09:27:04.409Z,20.36
2019-06-08T09:32:08.967Z,19.91
2019-06-08T09:37:13.352Z,19.61
2019-06-08T09:42:20.877Z,19.21
2019-06-08T09:47:23.730Z,20.11
2019-06-08T09:52:28.439Z,19.87
2019-06-08T09:57:32.733Z,20.16
2019-06-08T10:02:37.036Z,20.57
2019-06-08T10:07:41.315Z,20.25
2019-06-08T10:12:48.429Z,20.57
2019-06-08T10:17:52.546Z,20.34
2019-06-08T10:22:59.719Z,20.36
2019-06-08T10:28:07.884Z,20.31
2019-06-08T10:33:10.035Z,20.81
2019-06-08T10:38:17.899Z,20.71
2019-06-08T10:43:21.586Z,20.92
2019-06-08T10:48:27.619Z,20.36
2019-06-08T10:53:45.164Z,20.74
2019-06-08T10:58:39.597Z,21.14
2019-06-08T11:03:44.341Z,21.26
2019-06-08T11:08:49.111Z,21.47
2019-06-08T11:13:54.617Z,20.88
2019-06-08T11:19:00.999Z,21.02
2019-06-08T11:24:19.460Z,21.70
2019-06-08T11:29:13.669Z,21.44
2019-06-08T11:34:18.617Z,21.57
2019-06-08T11:39:24.483Z,21.17
2019-06-08T11:44:28.885Z,21.28
2019-06-08T11:49:33.299Z,21.74
2019-06-08T11:54:40.895Z,21.84
2019-06-08T11:59:48.532Z,21.55
2019-06-08T12:04:53.089Z,21.55
2019-06-08T12:09:58.378Z,22.14
2019-06-08T12:15:03.086Z,21.93
2019-06-08T12:20:14.029Z,22.25
2019-06-08T12:25:15.397Z,22.72
2019-06-08T12:30:25.894Z,22.44
2019-06-08T12:35:28.278Z,22.14
2019-06-08T12:40:32.196Z,22.04
2019-06-08T12:45:38.091Z,22.14
2019-06-08T12:50:42.474Z,22.31
2019-06-08T12:55:47.634Z,22.39
2019-06-08T13:00:52.130Z,22.39
2019-06-08T13:05:57.534Z,22.52
2019-06-08T13:11:02.030Z,22.57
2019-06-08T13:16:06.341Z,22.70
2019-06-08T13:21:23.375Z,22.40
2019-06-08T13:26:21.593Z,22.35
2019-06-08T13:31:24.715Z,22.71
2019-06-08T13:36:29.707Z,22.59
2019-06-08T13:41:34.658Z,22.48
2019-06-08T13:46:38.964Z,22.51
2019-06-08T13:51:43.256Z,22.63
2019-06-08T13:56:47.927Z,22.45
2019-06-08T14:01:53.554Z,22.51
2019-06-08T14:06:58.340Z,22.68
2019-06-08T14:12:02.673Z,22.65
2019-06-08T14:17:08.501Z,22.52
2019-06-08T14:22:14.036Z,22.74
2019-06-08T14:27:19.330Z,22.44
2019-06-08T14:32:23.924Z,22.44
2019-06-08T14:37:30.466Z,22.66
2019-06-08T14:42:34.283Z,22.72
2019-06-08T14:47:38.554Z,22.46
2019-06-08T14:52:42.845Z,22.39
2019-06-08T14:57:48.159Z,22.57
2019-06-08T15:02:52.620Z,22.68
2019-06-08T15:08:00.456Z,22.48
2019-06-08T15:13:02.891Z,22.60
2019-06-08T15:18:08.481Z,22.72
2019-06-08T15:23:13.198Z,22.48
2019-06-08T15:28:18.236Z,22.29
2019-06-08T15:33:24.324Z,22.46
2019-06-08T15:38:31.520Z,22.50
2019-06-08T15:43:37.657Z,22.40
2019-06-08T15:48:40.892Z,22.24
2019-06-08T15:53:47.569Z,22.21
2019-06-08T15:58:51.199Z,22.30
2019-06-08T16:03:55.462Z,22.38
2019-06-08T16:08:59.849Z,22.48
2019-06-08T16:14:04.355Z,22.46
2019-06-08T16:19:08.675Z,22.49
2019-06-08T16:24:12.947Z,22.34
2019-06-08T16:29:17.245Z,22.52
2019-06-08T16:34:21.539Z,22.39
2019-06-08T16:39:26.897Z,22.23
2019-06-08T16:44:32.258Z,22.43
2019-06-08T16:49:37.229Z,22.24
2019-06-08T16:54:41.511Z,22.29
2019-06-08T16:59:45.795Z,22.56
2019-06-08T17:04:51.053Z,22.34
2019-06-08T17:09:55.514Z,22.37
2019-06-08T17:14:59.834Z,22.27
2019-06-08T17:20:06.240Z,22.04
2019-06-08T17:25:10.960Z,21.98
2019-06-08T17:30:15.448Z,22.16
2019-06-08T17:35:19.733Z,22.17
2019-06-08T17:40:24.020Z,22.12
2019-06-08T17:45:28.300Z,22.04
2019-06-08T17:50:32.734Z,21.82
2019-06-08T17:55:37.275Z,21.55
2019-06-08T18:00:41.908Z,21.92
2019-06-08T18:05:48.669Z,21.93
2019-06-08T18:10:52.602Z,21.90
2019-06-08T18:15:57.644Z,21.74
2019-06-08T18:21:01.989Z,21.70
2019-06-08T18:26:07.717Z,21.68
2019-06-08T18:31:12.233Z,21.37
2019-06-08T18:36:17.129Z,21.31
2019-06-08T18:41:21.767Z,20.91
2019-06-08T18:46:27.206Z,20.81
2019-06-08T18:51:31.614Z,20.84
2019-06-08T18:56:38.716Z,20.63
2019-06-08T19:01:43.219Z,20.35
2019-06-08T19:06:48.801Z,20.30
2019-06-08T19:11:53.618Z,20.20
2019-06-08T19:16:58.201Z,20.11
2019-06-08T19:22:02.801Z,20.04
2019-06-08T19:27:08.213Z,19.91
2019-06-08T19:32:13.283Z,19.85
2019-06-08T19:37:17.577Z,19.66
2019-06-08T19:42:35.664Z,19.61
2019-06-08T19:47:27.862Z,19.52
2019-06-08T19:52:32.138Z,19.48
2019-06-08T19:57:36.440Z,19.40
2019-06-08T20:02:40.687Z,19.43
2019-06-08T20:07:45.014Z,19.24
2019-06-08T20:12:50.893Z,19.09
2019-06-08T20:17:57.483Z,19.05
2019-06-08T20:23:01.360Z,18.99
2019-06-08T20:28:07.772Z,18.94
2019-06-08T20:33:11.646Z,18.86
2019-06-08T20:38:17.731Z,18.74
2019-06-08T20:43:21.998Z,18.74
2019-06-08T20:48:27.507Z,18.66
2019-06-08T20:53:31.945Z,18.55
2019-06-08T20:58:37.142Z,18.28
2019-06-08T21:03:41.588Z,18.12
2019-06-08T21:08:48.566Z,17.91
2019-06-08T21:13:52.808Z,17.76
2019-06-08T21:18:58.224Z,17.50
2019-06-08T21:24:02.521Z,17.67
2019-06-08T21:29:08.229Z,17.61
2019-06-08T21:34:12.672Z,17.41
2019-06-08T21:39:17.388Z,17.31
2019-06-08T21:44:21.775Z,17.29
2019-06-08T21:49:27.704Z,17.21
2019-06-08T21:54:32.210Z,16.98
2019-06-08T21:59:37.888Z,16.69
2019-06-08T22:04:42.283Z,16.82
2019-06-08T22:09:48.010Z,16.64
2019-06-08T22:14:52.813Z,16.60
2019-06-08T22:19:59.244Z,16.49
2019-06-08T22:25:03.703Z,16.52
2019-06-08T22:30:11.652Z,16.54
2019-06-08T22:35:14.205Z,16.39
2019-06-08T22:40:18.614Z,16.33
2019-06-08T22:45:22.884Z,16.26
2019-06-08T22:50:27.617Z,16.21
2019-06-08T22:55:31.933Z,16.17
2019-06-08T23:00:49.072Z,16.00
2019-06-08T23:05:42.233Z,15.89
2019-06-08T23:10:48.218Z,15.80
2019-06-08T23:15:52.691Z,16.03
2019-06-08T23:20:58.290Z,16.01
2019-06-08T23:26:05.184Z,15.85
2019-06-08T23:31:19.429Z,15.73
2019-06-08T23:36:45.443Z,15.86
2019-06-08T23:41:21.363Z,15.59
2019-06-08T23:46:27.399Z,15.57
2019-06-08T23:51:31.792Z,15.58
2019-06-08T23:56:37.039Z,15.77
